Flugplatz Giengen/Brenz (EDNG)

Hier findest Du alle Informationen zum Flugplatz Giengen/Brenz (EDNG).

Informationen für Piloten zum Flugplatz Giengen/Brenz

Hier findest Du alle relevanten Informationen, die Du als Pilot benötigst, um Giengen/Brenz anzufliegen.

Flugplatz: Giengen/Brenz ICAO-Code: EDNG
Frequenz Turm: 122,355 Mhz GAFOR Gebiet: 62
Frequenz Ground: 122,355 Mhz Mogas: ja
Platzrunde: W 2600 ft Landegebühr: -
Platzhöhe: - Sunrise: 03:18 Uhr UTC
Pisten: 17/35 - 480 m x 15 m, ASPH Sunset: 19:27 Uhr UTC

Mitglieder, die in Giengen/Brenz fliegen

Flugwetter am Flugplatz Giengen/Brenz

Die METAR Information stammen aus EDMA (57.66 km entfernt).

METAR Code:
2022/06/25 12:50
EDMA 251250Z 09004KT 340V140 9999 FEW047 23/12 Q1015

Temperatur: 15,3 °C Niederschlag: - Wind: 3,7 kt (max.: 3,7 kt in Böen)
Temperatur (min.): 14,4 °C Luftdruck: 1023 hPa Windrichtung: 209 °
Temperatur (max.): 16,2 °C Luftfeuchtigkeit: 80 % Bewölkung: -

Flugschulen am Flugplatz Giengen/Brenz

Am Flugplatz Giengen/Brenz gibt es eine Flugschule.

Benachbarte Flugplätze und Flugschulen

Es gibt 25 weitere Flugplätze in einem Umkreis von 50 km um den Flugplatz Giengen/Brenz.

Jetzt anmelden

Passwort vergessen

Umfrage Archiv

Sendet Ihr ADS-B und/oder FLARM?

Ja
83.1 %
Nein
16.9 %
Stimmen: 177 | Diskussion
Anzeige: Roland Aircraft
Statistik Alle Mitglieder

Aktuell sind 53 Besucher online.

Anzeige: ULPower Aero Engines Anzeige: Pocket FMS